sensor_id;sensor_type;location;lat;lon;timestamp;P1;durP1;ratioP1;P2;durP2;ratioP2
73729;SDS011;62036;48.128;16.458;2023-04-15T00:00:18;0.55;;;0.20;;
73729;SDS011;62036;48.128;16.458;2023-04-15T00:02:44;0.20;;;0.10;;
73729;SDS011;62036;48.128;16.458;2023-04-15T00:05:10;0.73;;;0.10;;
73729;SDS011;62036;48.128;16.458;2023-04-15T00:07:36;0.30;;;0.30;;
73729;SDS011;62036;48.128;16.458;2023-04-15T00:10:02;0.40;;;0.40;;
73729;SDS011;62036;48.128;16.458;2023-04-15T00:12:29;0.20;;;0.20;;
73729;SDS011;62036;48.128;16.458;2023-04-15T00:14:55;0.50;;;0.10;;
73729;SDS011;62036;48.128;16.458;2023-04-15T00:17:22;0.20;;;0.10;;
73729;SDS011;62036;48.128;16.458;2023-04-15T00:19:48;0.20;;;0.20;;
73729;SDS011;62036;48.128;16.458;2023-04-15T00:22:14;0.85;;;0.10;;
73729;SDS011;62036;48.128;16.458;2023-04-15T00:24:42;0.70;;;0.20;;
73729;SDS011;62036;48.128;16.458;2023-04-15T00:27:08;0.10;;;0.10;;
73729;SDS011;62036;48.128;16.458;2023-04-15T00:29:34;0.03;;;0.03;;
73729;SDS011;62036;48.128;16.458;2023-04-15T00:32:00;0.35;;;0.30;;
73729;SDS011;62036;48.128;16.458;2023-04-15T00:34:26;0.22;;;0.20;;
73729;SDS011;62036;48.128;16.458;2023-04-15T00:36:53;0.45;;;0.35;;
73729;SDS011;62036;48.128;16.458;2023-04-15T00:39:19;0.32;;;0.20;;
73729;SDS011;62036;48.128;16.458;2023-04-15T00:41:45;0.30;;;0.30;;
73729;SDS011;62036;48.128;16.458;2023-04-15T00:44:11;0.55;;;0.40;;
73729;SDS011;62036;48.128;16.458;2023-04-15T00:46:38;0.50;;;0.25;;
73729;SDS011;62036;48.128;16.458;2023-04-15T00:49:04;0.30;;;0.30;;
73729;SDS011;62036;48.128;16.458;2023-04-15T00:51:31;0.30;;;0.30;;
73729;SDS011;62036;48.128;16.458;2023-04-15T00:54:01;0.30;;;0.30;;
73729;SDS011;62036;48.128;16.458;2023-04-15T00:56:28;0.35;;;0.20;;
73729;SDS011;62036;48.128;16.458;2023-04-15T00:58:57;0.30;;;0.30;;
73729;SDS011;62036;48.128;16.458;2023-04-15T01:01:24;0.10;;;0.10;;
73729;SDS011;62036;48.128;16.458;2023-04-15T01:03:50;0.40;;;0.30;;
73729;SDS011;62036;48.128;16.458;2023-04-15T01:06:17;0.45;;;0.30;;
73729;SDS011;62036;48.128;16.458;2023-04-15T01:08:43;0.17;;;0.15;;
73729;SDS011;62036;48.128;16.458;2023-04-15T01:11:09;0.60;;;0.32;;
73729;SDS011;62036;48.128;16.458;2023-04-15T01:13:37;0.47;;;0.20;;
73729;SDS011;62036;48.128;16.458;2023-04-15T01:16:03;1.10;;;0.40;;
73729;SDS011;62036;48.128;16.458;2023-04-15T01:18:29;0.65;;;0.10;;
73729;SDS011;62036;48.128;16.458;2023-04-15T01:20:56;0.82;;;0.22;;
73729;SDS011;62036;48.128;16.458;2023-04-15T01:23:22;0.20;;;0.10;;
73729;SDS011;62036;48.128;16.458;2023-04-15T01:25:48;0.68;;;0.40;;
73729;SDS011;62036;48.128;16.458;2023-04-15T01:28:14;0.30;;;0.30;;
73729;SDS011;62036;48.128;16.458;2023-04-15T01:30:41;0.45;;;0.30;;
73729;SDS011;62036;48.128;16.458;2023-04-15T01:33:07;0.20;;;0.17;;
73729;SDS011;62036;48.128;16.458;2023-04-15T01:35:33;2.33;;;0.20;;
73729;SDS011;62036;48.128;16.458;2023-04-15T01:38:06;0.43;;;0.13;;
73729;SDS011;62036;48.128;16.458;2023-04-15T01:40:32;0.50;;;0.13;;
73729;SDS011;62036;48.128;16.458;2023-04-15T01:42:59;0.43;;;0.20;;
73729;SDS011;62036;48.128;16.458;2023-04-15T01:45:25;0.20;;;0.20;;
73729;SDS011;62036;48.128;16.458;2023-04-15T01:47:51;0.40;;;0.40;;
73729;SDS011;62036;48.128;16.458;2023-04-15T01:50:17;0.30;;;0.30;;
73729;SDS011;62036;48.128;16.458;2023-04-15T01:52:44;0.40;;;0.28;;
73729;SDS011;62036;48.128;16.458;2023-04-15T01:55:11;0.50;;;0.20;;
73729;SDS011;62036;48.128;16.458;2023-04-15T01:57:37;1.52;;;0.60;;
73729;SDS011;62036;48.128;16.458;2023-04-15T02:00:03;1.38;;;0.30;;
73729;SDS011;62036;48.128;16.458;2023-04-15T02:02:31;0.35;;;0.25;;
73729;SDS011;62036;48.128;16.458;2023-04-15T02:04:57;0.35;;;0.30;;
73729;SDS011;62036;48.128;16.458;2023-04-15T02:07:23;0.30;;;0.30;;
73729;SDS011;62036;48.128;16.458;2023-04-15T02:09:49;0.30;;;0.30;;
73729;SDS011;62036;48.128;16.458;2023-04-15T02:12:15;0.57;;;0.40;;
73729;SDS011;62036;48.128;16.458;2023-04-15T02:14:41;0.60;;;0.60;;
73729;SDS011;62036;48.128;16.458;2023-04-15T02:17:07;0.93;;;0.40;;
73729;SDS011;62036;48.128;16.458;2023-04-15T02:19:34;0.40;;;0.40;;
73729;SDS011;62036;48.128;16.458;2023-04-15T02:22:00;0.30;;;0.30;;
73729;SDS011;62036;48.128;16.458;2023-04-15T02:24:26;0.22;;;0.22;;
73729;SDS011;62036;48.128;16.458;2023-04-15T02:26:53;0.93;;;0.25;;
73729;SDS011;62036;48.128;16.458;2023-04-15T02:29:19;0.13;;;0.13;;
73729;SDS011;62036;48.128;16.458;2023-04-15T02:31:45;0.63;;;0.50;;
73729;SDS011;62036;48.128;16.458;2023-04-15T02:34:12;0.10;;;0.10;;
73729;SDS011;62036;48.128;16.458;2023-04-15T02:36:38;0.32;;;0.20;;
73729;SDS011;62036;48.128;16.458;2023-04-15T02:39:05;0.38;;;0.20;;
73729;SDS011;62036;48.128;16.458;2023-04-15T02:41:31;0.22;;;0.13;;
73729;SDS011;62036;48.128;16.458;2023-04-15T02:43:57;0.60;;;0.35;;
73729;SDS011;62036;48.128;16.458;2023-04-15T02:46:23;0.93;;;0.60;;
73729;SDS011;62036;48.128;16.458;2023-04-15T02:48:49;0.30;;;0.30;;
73729;SDS011;62036;48.128;16.458;2023-04-15T02:51:18;1.13;;;0.43;;
73729;SDS011;62036;48.128;16.458;2023-04-15T02:53:45;0.22;;;0.22;;
73729;SDS011;62036;48.128;16.458;2023-04-15T02:56:11;0.40;;;0.30;;
73729;SDS011;62036;48.128;16.458;2023-04-15T02:58:39;0.68;;;0.50;;
73729;SDS011;62036;48.128;16.458;2023-04-15T03:01:05;0.38;;;0.35;;
73729;SDS011;62036;48.128;16.458;2023-04-15T03:03:32;0.25;;;0.20;;
73729;SDS011;62036;48.128;16.458;2023-04-15T03:05:58;0.20;;;0.20;;
73729;SDS011;62036;48.128;16.458;2023-04-15T03:08:24;1.48;;;0.32;;
73729;SDS011;62036;48.128;16.458;2023-04-15T03:10:51;0.30;;;0.30;;
73729;SDS011;62036;48.128;16.458;2023-04-15T03:13:18;0.40;;;0.40;;
73729;SDS011;62036;48.128;16.458;2023-04-15T03:15:47;0.20;;;0.20;;
73729;SDS011;62036;48.128;16.458;2023-04-15T03:18:13;0.60;;;0.43;;
73729;SDS011;62036;48.128;16.458;2023-04-15T03:20:39;0.60;;;0.50;;
73729;SDS011;62036;48.128;16.458;2023-04-15T03:23:05;0.30;;;0.25;;
73729;SDS011;62036;48.128;16.458;2023-04-15T03:25:31;1.35;;;0.30;;
73729;SDS011;62036;48.128;16.458;2023-04-15T03:27:58;0.57;;;0.43;;
73729;SDS011;62036;48.128;16.458;2023-04-15T03:30:24;2.65;;;1.33;;
73729;SDS011;62036;48.128;16.458;2023-04-15T03:32:50;3.95;;;1.60;;
73729;SDS011;62036;48.128;16.458;2023-04-15T03:35:16;4.97;;;1.70;;
73729;SDS011;62036;48.128;16.458;2023-04-15T03:37:42;3.25;;;1.00;;
73729;SDS011;62036;48.128;16.458;2023-04-15T03:40:10;2.40;;;0.70;;
73729;SDS011;62036;48.128;16.458;2023-04-15T03:42:36;1.40;;;0.60;;
73729;SDS011;62036;48.128;16.458;2023-04-15T03:45:02;1.70;;;0.77;;
73729;SDS011;62036;48.128;16.458;2023-04-15T03:47:28;0.73;;;0.47;;
73729;SDS011;62036;48.128;16.458;2023-04-15T03:49:55;1.67;;;0.43;;
73729;SDS011;62036;48.128;16.458;2023-04-15T03:52:21;1.45;;;0.60;;
73729;SDS011;62036;48.128;16.458;2023-04-15T03:54:47;0.65;;;0.50;;
73729;SDS011;62036;48.128;16.458;2023-04-15T03:57:13;0.60;;;0.52;;
73729;SDS011;62036;48.128;16.458;2023-04-15T03:59:39;0.73;;;0.50;;
73729;SDS011;62036;48.128;16.458;2023-04-15T04:02:05;1.30;;;0.88;;
73729;SDS011;62036;48.128;16.458;2023-04-15T04:04:31;2.35;;;0.90;;
73729;SDS011;62036;48.128;16.458;2023-04-15T04:06:57;0.70;;;0.70;;
73729;SDS011;62036;48.128;16.458;2023-04-15T04:09:23;0.93;;;0.63;;
73729;SDS011;62036;48.128;16.458;2023-04-15T04:11:49;0.93;;;0.75;;
73729;SDS011;62036;48.128;16.458;2023-04-15T04:14:15;0.73;;;0.52;;
73729;SDS011;62036;48.128;16.458;2023-04-15T04:16:44;0.77;;;0.60;;
73729;SDS011;62036;48.128;16.458;2023-04-15T04:19:11;0.70;;;0.50;;
73729;SDS011;62036;48.128;16.458;2023-04-15T04:21:38;0.93;;;0.70;;
73729;SDS011;62036;48.128;16.458;2023-04-15T04:24:04;1.35;;;1.00;;
73729;SDS011;62036;48.128;16.458;2023-04-15T04:26:31;0.80;;;0.80;;
73729;SDS011;62036;48.128;16.458;2023-04-15T04:28:57;1.40;;;0.77;;
73729;SDS011;62036;48.128;16.458;2023-04-15T04:31:23;0.90;;;0.80;;
73729;SDS011;62036;48.128;16.458;2023-04-15T04:33:49;0.70;;;0.60;;
73729;SDS011;62036;48.128;16.458;2023-04-15T04:36:15;1.85;;;1.20;;
73729;SDS011;62036;48.128;16.458;2023-04-15T04:38:41;2.00;;;0.68;;
73729;SDS011;62036;48.128;16.458;2023-04-15T04:41:07;1.15;;;0.95;;
73729;SDS011;62036;48.128;16.458;2023-04-15T04:43:33;1.20;;;1.00;;
73729;SDS011;62036;48.128;16.458;2023-04-15T04:45:59;1.48;;;1.33;;
73729;SDS011;62036;48.128;16.458;2023-04-15T04:48:25;2.05;;;1.52;;
73729;SDS011;62036;48.128;16.458;2023-04-15T04:50:51;1.63;;;1.30;;
73729;SDS011;62036;48.128;16.458;2023-04-15T04:53:18;1.58;;;1.02;;
73729;SDS011;62036;48.128;16.458;2023-04-15T04:55:44;1.55;;;0.95;;
73729;SDS011;62036;48.128;16.458;2023-04-15T04:58:10;2.10;;;1.27;;
73729;SDS011;62036;48.128;16.458;2023-04-15T05:00:36;2.53;;;2.03;;
73729;SDS011;62036;48.128;16.458;2023-04-15T05:03:02;3.70;;;1.98;;
73729;SDS011;62036;48.128;16.458;2023-04-15T05:05:28;6.60;;;2.80;;
73729;SDS011;62036;48.128;16.458;2023-04-15T05:07:54;4.80;;;2.63;;
73729;SDS011;62036;48.128;16.458;2023-04-15T05:10:20;2.42;;;1.77;;
73729;SDS011;62036;48.128;16.458;2023-04-15T05:12:46;2.45;;;1.25;;
73729;SDS011;62036;48.128;16.458;2023-04-15T05:15:12;1.58;;;1.42;;
73729;SDS011;62036;48.128;16.458;2023-04-15T05:17:38;1.98;;;1.50;;
73729;SDS011;62036;48.128;16.458;2023-04-15T05:20:04;2.17;;;1.70;;
73729;SDS011;62036;48.128;16.458;2023-04-15T05:22:31;2.28;;;1.50;;
73729;SDS011;62036;48.128;16.458;2023-04-15T05:24:57;1.88;;;1.20;;
73729;SDS011;62036;48.128;16.458;2023-04-15T05:27:23;1.50;;;1.23;;
73729;SDS011;62036;48.128;16.458;2023-04-15T05:29:49;1.88;;;1.50;;
73729;SDS011;62036;48.128;16.458;2023-04-15T05:32:15;1.67;;;1.58;;
73729;SDS011;62036;48.128;16.458;2023-04-15T05:34:41;2.05;;;1.65;;
73729;SDS011;62036;48.128;16.458;2023-04-15T05:37:07;2.10;;;1.65;;
73729;SDS011;62036;48.128;16.458;2023-04-15T05:39:33;2.63;;;1.42;;
73729;SDS011;62036;48.128;16.458;2023-04-15T05:41:59;2.30;;;1.60;;
73729;SDS011;62036;48.128;16.458;2023-04-15T05:44:26;2.42;;;1.95;;
73729;SDS011;62036;48.128;16.458;2023-04-15T05:46:52;3.88;;;1.98;;
73729;SDS011;62036;48.128;16.458;2023-04-15T05:49:18;4.30;;;2.47;;
73729;SDS011;62036;48.128;16.458;2023-04-15T05:51:45;3.50;;;1.75;;
73729;SDS011;62036;48.128;16.458;2023-04-15T05:54:11;3.78;;;2.00;;
73729;SDS011;62036;48.128;16.458;2023-04-15T05:56:37;3.50;;;1.63;;
73729;SDS011;62036;48.128;16.458;2023-04-15T05:59:03;2.42;;;2.03;;
73729;SDS011;62036;48.128;16.458;2023-04-15T06:01:30;2.05;;;1.38;;
73729;SDS011;62036;48.128;16.458;2023-04-15T06:03:58;1.45;;;1.17;;
73729;SDS011;62036;48.128;16.458;2023-04-15T06:06:24;2.70;;;1.52;;
73729;SDS011;62036;48.128;16.458;2023-04-15T06:08:51;1.20;;;1.02;;
73729;SDS011;62036;48.128;16.458;2023-04-15T06:11:20;1.70;;;0.90;;
73729;SDS011;62036;48.128;16.458;2023-04-15T06:13:46;1.63;;;1.15;;
73729;SDS011;62036;48.128;16.458;2023-04-15T06:16:14;1.10;;;1.00;;
73729;SDS011;62036;48.128;16.458;2023-04-15T06:18:40;1.23;;;0.80;;
73729;SDS011;62036;48.128;16.458;2023-04-15T06:21:06;1.27;;;0.85;;
73729;SDS011;62036;48.128;16.458;2023-04-15T06:23:33;1.48;;;1.00;;
73729;SDS011;62036;48.128;16.458;2023-04-15T06:26:00;1.40;;;1.13;;
73729;SDS011;62036;48.128;16.458;2023-04-15T06:28:26;2.03;;;0.90;;
73729;SDS011;62036;48.128;16.458;2023-04-15T06:30:52;0.95;;;0.70;;
73729;SDS011;62036;48.128;16.458;2023-04-15T06:33:18;1.15;;;0.80;;
73729;SDS011;62036;48.128;16.458;2023-04-15T06:35:44;1.83;;;1.00;;
73729;SDS011;62036;48.128;16.458;2023-04-15T06:38:11;1.13;;;0.73;;
73729;SDS011;62036;48.128;16.458;2023-04-15T06:40:38;0.80;;;0.70;;
73729;SDS011;62036;48.128;16.458;2023-04-15T06:43:04;0.85;;;0.80;;
73729;SDS011;62036;48.128;16.458;2023-04-15T06:45:31;1.33;;;0.73;;
73729;SDS011;62036;48.128;16.458;2023-04-15T06:47:58;1.73;;;0.85;;
73729;SDS011;62036;48.128;16.458;2023-04-15T06:50:23;1.48;;;1.10;;
73729;SDS011;62036;48.128;16.458;2023-04-15T06:52:50;1.00;;;0.90;;
73729;SDS011;62036;48.128;16.458;2023-04-15T06:55:16;1.65;;;0.70;;
73729;SDS011;62036;48.128;16.458;2023-04-15T06:57:42;1.30;;;0.95;;
73729;SDS011;62036;48.128;16.458;2023-04-15T07:00:08;2.22;;;1.42;;
73729;SDS011;62036;48.128;16.458;2023-04-15T07:02:36;1.23;;;0.85;;
73729;SDS011;62036;48.128;16.458;2023-04-15T07:05:02;1.95;;;0.90;;
73729;SDS011;62036;48.128;16.458;2023-04-15T07:07:28;1.10;;;0.80;;
73729;SDS011;62036;48.128;16.458;2023-04-15T07:09:55;1.15;;;1.10;;
73729;SDS011;62036;48.128;16.458;2023-04-15T07:12:21;1.00;;;0.90;;
73729;SDS011;62036;48.128;16.458;2023-04-15T07:14:47;0.95;;;0.73;;
73729;SDS011;62036;48.128;16.458;2023-04-15T07:17:13;0.82;;;0.52;;
73729;SDS011;62036;48.128;16.458;2023-04-15T07:19:39;0.70;;;0.60;;
73729;SDS011;62036;48.128;16.458;2023-04-15T07:22:05;0.40;;;0.40;;
73729;SDS011;62036;48.128;16.458;2023-04-15T07:24:31;0.65;;;0.50;;
73729;SDS011;62036;48.128;16.458;2023-04-15T07:26:58;0.65;;;0.40;;
73729;SDS011;62036;48.128;16.458;2023-04-15T07:29:24;0.40;;;0.22;;
73729;SDS011;62036;48.128;16.458;2023-04-15T07:31:51;0.57;;;0.40;;
73729;SDS011;62036;48.128;16.458;2023-04-15T07:34:18;1.10;;;0.30;;
73729;SDS011;62036;48.128;16.458;2023-04-15T07:36:44;0.30;;;0.20;;
73729;SDS011;62036;48.128;16.458;2023-04-15T07:39:14;0.60;;;0.43;;
73729;SDS011;62036;48.128;16.458;2023-04-15T07:41:43;0.50;;;0.38;;
73729;SDS011;62036;48.128;16.458;2023-04-15T07:44:10;0.93;;;0.50;;
73729;SDS011;62036;48.128;16.458;2023-04-15T07:46:36;1.58;;;0.82;;
73729;SDS011;62036;48.128;16.458;2023-04-15T07:49:02;1.13;;;0.75;;
73729;SDS011;62036;48.128;16.458;2023-04-15T07:51:28;1.83;;;1.02;;
73729;SDS011;62036;48.128;16.458;2023-04-15T07:53:54;1.50;;;0.90;;
73729;SDS011;62036;48.128;16.458;2023-04-15T07:56:20;0.55;;;0.50;;
73729;SDS011;62036;48.128;16.458;2023-04-15T07:58:46;1.00;;;0.95;;
73729;SDS011;62036;48.128;16.458;2023-04-15T08:01:12;1.95;;;0.80;;
73729;SDS011;62036;48.128;16.458;2023-04-15T08:03:39;1.15;;;0.80;;
73729;SDS011;62036;48.128;16.458;2023-04-15T08:06:05;0.77;;;0.60;;
73729;SDS011;62036;48.128;16.458;2023-04-15T08:08:31;2.25;;;0.80;;
73729;SDS011;62036;48.128;16.458;2023-04-15T08:10:57;1.08;;;0.65;;
73729;SDS011;62036;48.128;16.458;2023-04-15T08:13:23;0.98;;;0.90;;
73729;SDS011;62036;48.128;16.458;2023-04-15T08:15:52;1.15;;;0.63;;
73729;SDS011;62036;48.128;16.458;2023-04-15T08:18:18;1.75;;;0.98;;
73729;SDS011;62036;48.128;16.458;2023-04-15T08:20:44;0.52;;;0.50;;
73729;SDS011;62036;48.128;16.458;2023-04-15T08:23:10;0.75;;;0.57;;
73729;SDS011;62036;48.128;16.458;2023-04-15T08:25:36;0.63;;;0.55;;
73729;SDS011;62036;48.128;16.458;2023-04-15T08:28:05;1.13;;;0.75;;
73729;SDS011;62036;48.128;16.458;2023-04-15T08:30:31;1.00;;;0.80;;
73729;SDS011;62036;48.128;16.458;2023-04-15T08:32:57;2.47;;;1.30;;
73729;SDS011;62036;48.128;16.458;2023-04-15T08:35:23;1.13;;;0.70;;
73729;SDS011;62036;48.128;16.458;2023-04-15T08:37:49;3.70;;;1.88;;
73729;SDS011;62036;48.128;16.458;2023-04-15T08:40:16;2.50;;;1.30;;
73729;SDS011;62036;48.128;16.458;2023-04-15T08:42:45;2.17;;;1.30;;
73729;SDS011;62036;48.128;16.458;2023-04-15T08:45:14;0.82;;;0.55;;
73729;SDS011;62036;48.128;16.458;2023-04-15T08:47:40;0.52;;;0.32;;
73729;SDS011;62036;48.128;16.458;2023-04-15T08:50:08;0.90;;;0.40;;
73729;SDS011;62036;48.128;16.458;2023-04-15T08:52:35;0.50;;;0.50;;
73729;SDS011;62036;48.128;16.458;2023-04-15T08:55:02;1.70;;;0.70;;
73729;SDS011;62036;48.128;16.458;2023-04-15T08:57:28;0.57;;;0.50;;
73729;SDS011;62036;48.128;16.458;2023-04-15T08:59:55;0.65;;;0.55;;
73729;SDS011;62036;48.128;16.458;2023-04-15T09:02:21;1.42;;;0.75;;
73729;SDS011;62036;48.128;16.458;2023-04-15T09:04:48;1.00;;;0.60;;
73729;SDS011;62036;48.128;16.458;2023-04-15T09:07:14;1.13;;;0.80;;
73729;SDS011;62036;48.128;16.458;2023-04-15T09:09:40;1.08;;;0.77;;
73729;SDS011;62036;48.128;16.458;2023-04-15T09:12:07;1.10;;;0.68;;
73729;SDS011;62036;48.128;16.458;2023-04-15T09:14:33;0.65;;;0.50;;
73729;SDS011;62036;48.128;16.458;2023-04-15T09:17:00;0.60;;;0.60;;
73729;SDS011;62036;48.128;16.458;2023-04-15T09:19:26;0.55;;;0.47;;
73729;SDS011;62036;48.128;16.458;2023-04-15T09:21:53;0.60;;;0.50;;
73729;SDS011;62036;48.128;16.458;2023-04-15T09:24:21;1.00;;;0.25;;
73729;SDS011;62036;48.128;16.458;2023-04-15T09:26:47;0.75;;;0.30;;
73729;SDS011;62036;48.128;16.458;2023-04-15T09:29:13;0.70;;;0.50;;
73729;SDS011;62036;48.128;16.458;2023-04-15T09:31:39;0.50;;;0.50;;
73729;SDS011;62036;48.128;16.458;2023-04-15T09:34:06;1.20;;;0.60;;
73729;SDS011;62036;48.128;16.458;2023-04-15T09:39:44;0.70;;;0.50;;
73729;SDS011;62036;48.128;16.458;2023-04-15T09:42:11;1.17;;;0.88;;
73729;SDS011;62036;48.128;16.458;2023-04-15T09:44:37;1.35;;;0.68;;
73729;SDS011;62036;48.128;16.458;2023-04-15T09:47:03;0.82;;;0.60;;
73729;SDS011;62036;48.128;16.458;2023-04-15T09:49:29;1.75;;;0.90;;
73729;SDS011;62036;48.128;16.458;2023-04-15T09:51:59;0.93;;;0.63;;
73729;SDS011;62036;48.128;16.458;2023-04-15T09:54:31;0.70;;;0.70;;
73729;SDS011;62036;48.128;16.458;2023-04-15T09:57:03;1.17;;;1.00;;
73729;SDS011;62036;48.128;16.458;2023-04-15T09:59:30;1.85;;;0.90;;
73729;SDS011;62036;48.128;16.458;2023-04-15T10:01:56;1.70;;;1.42;;
73729;SDS011;62036;48.128;16.458;2023-04-15T10:04:22;1.65;;;1.25;;
73729;SDS011;62036;48.128;16.458;2023-04-15T10:06:48;1.00;;;0.60;;
73729;SDS011;62036;48.128;16.458;2023-04-15T10:09:15;0.98;;;0.70;;
73729;SDS011;62036;48.128;16.458;2023-04-15T10:11:44;0.80;;;0.80;;
73729;SDS011;62036;48.128;16.458;2023-04-15T10:14:11;0.32;;;0.32;;
73729;SDS011;62036;48.128;16.458;2023-04-15T10:16:40;0.43;;;0.43;;
73729;SDS011;62036;48.128;16.458;2023-04-15T10:19:09;0.28;;;0.20;;
73729;SDS011;62036;48.128;16.458;2023-04-15T10:21:36;1.02;;;0.38;;
73729;SDS011;62036;48.128;16.458;2023-04-15T10:24:02;0.20;;;0.20;;
73729;SDS011;62036;48.128;16.458;2023-04-15T10:26:30;0.43;;;0.32;;
73729;SDS011;62036;48.128;16.458;2023-04-15T10:28:56;0.20;;;0.20;;
73729;SDS011;62036;48.128;16.458;2023-04-15T10:31:23;0.28;;;0.28;;
73729;SDS011;62036;48.128;16.458;2023-04-15T10:33:49;0.35;;;0.20;;
73729;SDS011;62036;48.128;16.458;2023-04-15T10:36:15;0.32;;;0.13;;
73729;SDS011;62036;48.128;16.458;2023-04-15T10:38:42;0.30;;;0.10;;
73729;SDS011;62036;48.128;16.458;2023-04-15T10:41:19;0.60;;;0.30;;
73729;SDS011;62036;48.128;16.458;2023-04-15T10:46:18;0.13;;;0.13;;
73729;SDS011;62036;48.128;16.458;2023-04-15T10:48:47;0.57;;;0.30;;
73729;SDS011;62036;48.128;16.458;2023-04-15T10:51:14;0.40;;;0.30;;
73729;SDS011;62036;48.128;16.458;2023-04-15T10:53:41;1.92;;;0.80;;
73729;SDS011;62036;48.128;16.458;2023-04-15T10:56:07;1.02;;;0.52;;
73729;SDS011;62036;48.128;16.458;2023-04-15T10:58:41;0.40;;;0.35;;
73729;SDS011;62036;48.128;16.458;2023-04-15T11:01:07;0.28;;;0.25;;
73729;SDS011;62036;48.128;16.458;2023-04-15T11:03:37;0.80;;;0.40;;
73729;SDS011;62036;48.128;16.458;2023-04-15T11:06:04;1.20;;;0.80;;
73729;SDS011;62036;48.128;16.458;2023-04-15T11:11:14;0.73;;;0.55;;
73729;SDS011;62036;48.128;16.458;2023-04-15T11:13:46;0.63;;;0.50;;
73729;SDS011;62036;48.128;16.458;2023-04-15T11:16:12;0.60;;;0.35;;
73729;SDS011;62036;48.128;16.458;2023-04-15T11:18:38;0.60;;;0.40;;
73729;SDS011;62036;48.128;16.458;2023-04-15T11:21:06;0.75;;;0.50;;
73729;SDS011;62036;48.128;16.458;2023-04-15T11:23:39;0.80;;;0.50;;
73729;SDS011;62036;48.128;16.458;2023-04-15T11:26:08;0.90;;;0.43;;
73729;SDS011;62036;48.128;16.458;2023-04-15T11:28:36;0.50;;;0.28;;
73729;SDS011;62036;48.128;16.458;2023-04-15T11:31:06;3.83;;;2.42;;
73729;SDS011;62036;48.128;16.458;2023-04-15T11:33:32;0.60;;;0.45;;
73729;SDS011;62036;48.128;16.458;2023-04-15T11:35:59;0.40;;;0.30;;
73729;SDS011;62036;48.128;16.458;2023-04-15T11:38:26;0.40;;;0.30;;
73729;SDS011;62036;48.128;16.458;2023-04-15T11:40:52;0.38;;;0.20;;
73729;SDS011;62036;48.128;16.458;2023-04-15T11:43:18;0.20;;;0.20;;
73729;SDS011;62036;48.128;16.458;2023-04-15T11:48:15;0.93;;;0.40;;
73729;SDS011;62036;48.128;16.458;2023-04-15T11:50:41;0.25;;;0.20;;
73729;SDS011;62036;48.128;16.458;2023-04-15T11:53:11;0.45;;;0.10;;
73729;SDS011;62036;48.128;16.458;2023-04-15T11:55:41;0.40;;;0.30;;
73729;SDS011;62036;48.128;16.458;2023-04-15T11:58:18;0.30;;;0.20;;
73729;SDS011;62036;48.128;16.458;2023-04-15T12:00:48;0.32;;;0.20;;
73729;SDS011;62036;48.128;16.458;2023-04-15T12:03:18;0.93;;;0.30;;
73729;SDS011;62036;48.128;16.458;2023-04-15T12:11:18;0.20;;;0.20;;
73729;SDS011;62036;48.128;16.458;2023-04-15T12:13:45;0.60;;;0.40;;
73729;SDS011;62036;48.128;16.458;2023-04-15T12:16:12;0.32;;;0.30;;
73729;SDS011;62036;48.128;16.458;2023-04-15T12:18:41;0.68;;;0.50;;
73729;SDS011;62036;48.128;16.458;2023-04-15T12:21:09;0.40;;;0.30;;
73729;SDS011;62036;48.128;16.458;2023-04-15T12:23:39;1.00;;;0.30;;
73729;SDS011;62036;48.128;16.458;2023-04-15T12:26:13;0.30;;;0.30;;
73729;SDS011;62036;48.128;16.458;2023-04-15T12:28:39;0.60;;;0.45;;
73729;SDS011;62036;48.128;16.458;2023-04-15T12:31:09;1.65;;;0.50;;
73729;SDS011;62036;48.128;16.458;2023-04-15T12:33:37;0.60;;;0.50;;
73729;SDS011;62036;48.128;16.458;2023-04-15T12:36:03;0.60;;;0.30;;
73729;SDS011;62036;48.128;16.458;2023-04-15T12:38:30;0.77;;;0.45;;
73729;SDS011;62036;48.128;16.458;2023-04-15T12:40:56;0.50;;;0.43;;
73729;SDS011;62036;48.128;16.458;2023-04-15T12:43:23;0.70;;;0.40;;
73729;SDS011;62036;48.128;16.458;2023-04-15T12:45:50;0.73;;;0.40;;
73729;SDS011;62036;48.128;16.458;2023-04-15T12:48:16;0.52;;;0.25;;
73729;SDS011;62036;48.128;16.458;2023-04-15T12:50:42;0.17;;;0.13;;
73729;SDS011;62036;48.128;16.458;2023-04-15T12:53:08;0.63;;;0.40;;
73729;SDS011;62036;48.128;16.458;2023-04-15T12:55:34;0.75;;;0.40;;
73729;SDS011;62036;48.128;16.458;2023-04-15T12:58:00;0.80;;;0.50;;
73729;SDS011;62036;48.128;16.458;2023-04-15T13:00:26;0.17;;;0.15;;
73729;SDS011;62036;48.128;16.458;2023-04-15T13:02:52;0.25;;;0.20;;
73729;SDS011;62036;48.128;16.458;2023-04-15T13:05:18;0.65;;;0.32;;
73729;SDS011;62036;48.128;16.458;2023-04-15T13:07:45;0.22;;;0.17;;
73729;SDS011;62036;48.128;16.458;2023-04-15T13:10:11;0.20;;;0.20;;
73729;SDS011;62036;48.128;16.458;2023-04-15T13:12:37;11.23;;;5.65;;
73729;SDS011;62036;48.128;16.458;2023-04-15T13:15:03;2.25;;;1.05;;
73729;SDS011;62036;48.128;16.458;2023-04-15T13:17:29;2.63;;;1.40;;
73729;SDS011;62036;48.128;16.458;2023-04-15T13:19:55;0.30;;;0.25;;
73729;SDS011;62036;48.128;16.458;2023-04-15T13:22:21;0.30;;;0.15;;
73729;SDS011;62036;48.128;16.458;2023-04-15T13:24:47;1.17;;;0.50;;
73729;SDS011;62036;48.128;16.458;2023-04-15T13:27:13;1.25;;;0.40;;
73729;SDS011;62036;48.128;16.458;2023-04-15T13:29:39;0.50;;;0.38;;
73729;SDS011;62036;48.128;16.458;2023-04-15T13:32:05;0.00;;;0.00;;
73729;SDS011;62036;48.128;16.458;2023-04-15T13:34:31;0.32;;;0.30;;
73729;SDS011;62036;48.128;16.458;2023-04-15T13:36:57;0.28;;;0.15;;
73729;SDS011;62036;48.128;16.458;2023-04-15T13:39:23;0.17;;;0.10;;
73729;SDS011;62036;48.128;16.458;2023-04-15T13:41:50;0.10;;;0.10;;
73729;SDS011;62036;48.128;16.458;2023-04-15T13:44:16;0.20;;;0.20;;
73729;SDS011;62036;48.128;16.458;2023-04-15T13:46:42;0.20;;;0.10;;
73729;SDS011;62036;48.128;16.458;2023-04-15T13:49:08;0.10;;;0.10;;
73729;SDS011;62036;48.128;16.458;2023-04-15T13:51:34;0.00;;;0.00;;
73729;SDS011;62036;48.128;16.458;2023-04-15T13:54:01;0.30;;;0.05;;
73729;SDS011;62036;48.128;16.458;2023-04-15T13:56:27;0.10;;;0.05;;
73729;SDS011;62036;48.128;16.458;2023-04-15T13:58:53;0.00;;;0.00;;
73729;SDS011;62036;48.128;16.458;2023-04-15T14:01:23;0.03;;;0.03;;
73729;SDS011;62036;48.128;16.458;2023-04-15T14:03:49;0.00;;;0.00;;
73729;SDS011;62036;48.128;16.458;2023-04-15T14:06:15;0.13;;;0.10;;
73729;SDS011;62036;48.128;16.458;2023-04-15T14:08:41;0.00;;;0.00;;
73729;SDS011;62036;48.128;16.458;2023-04-15T14:11:07;0.10;;;0.10;;
73729;SDS011;62036;48.128;16.458;2023-04-15T14:13:33;0.65;;;0.35;;
73729;SDS011;62036;48.128;16.458;2023-04-15T14:15:59;0.70;;;0.20;;
73729;SDS011;62036;48.128;16.458;2023-04-15T14:18:25;0.17;;;0.17;;
73729;SDS011;62036;48.128;16.458;2023-04-15T14:20:51;0.40;;;0.10;;
73729;SDS011;62036;48.128;16.458;2023-04-15T14:23:18;0.32;;;0.10;;
73729;SDS011;62036;48.128;16.458;2023-04-15T14:25:44;0.30;;;0.13;;
73729;SDS011;62036;48.128;16.458;2023-04-15T14:28:10;0.68;;;0.13;;
73729;SDS011;62036;48.128;16.458;2023-04-15T14:30:36;0.20;;;0.17;;
73729;SDS011;62036;48.128;16.458;2023-04-15T14:33:02;0.15;;;0.10;;
73729;SDS011;62036;48.128;16.458;2023-04-15T14:35:28;0.13;;;0.13;;
73729;SDS011;62036;48.128;16.458;2023-04-15T14:37:54;0.13;;;0.10;;
73729;SDS011;62036;48.128;16.458;2023-04-15T14:40:20;0.65;;;0.20;;
73729;SDS011;62036;48.128;16.458;2023-04-15T14:42:46;0.30;;;0.10;;
73729;SDS011;62036;48.128;16.458;2023-04-15T14:45:15;0.10;;;0.10;;